createdAt,value
2019-03-22T00:00:52.943Z,71.97
2019-03-22T00:03:22.800Z,73.80
2019-03-22T00:05:52.695Z,60.30
2019-03-22T00:08:22.524Z,69.57
2019-03-22T00:10:52.362Z,74.40
2019-03-22T00:13:22.156Z,70.07
2019-03-22T00:15:51.959Z,71.87
2019-03-22T00:18:21.731Z,83.63
2019-03-22T00:20:51.614Z,75.43
2019-03-22T00:23:21.828Z,70.13
2019-03-22T00:25:51.490Z,84.20
2019-03-22T00:28:21.479Z,81.43
2019-03-22T00:30:51.475Z,70.17
2019-03-22T00:33:21.187Z,74.00
2019-03-22T00:35:51.224Z,76.00
2019-03-22T00:38:20.883Z,64.27
2019-03-22T00:40:50.572Z,75.60
2019-03-22T00:43:20.231Z,78.17
2019-03-22T00:45:50.239Z,76.40
2019-03-22T00:48:20.255Z,68.87
2019-03-22T00:50:49.948Z,64.57
2019-03-22T00:53:19.613Z,83.87
2019-03-22T00:55:49.591Z,75.67
2019-03-22T00:58:19.388Z,69.13
2019-03-22T01:00:49.077Z,68.30
2019-03-22T01:03:18.761Z,67.50
2019-03-22T01:05:48.446Z,72.83
2019-03-22T01:08:18.375Z,69.60
2019-03-22T01:10:48.859Z,71.10
2019-03-22T01:13:18.923Z,67.20
2019-03-22T01:15:48.611Z,62.00
2019-03-22T01:18:18.280Z,64.30
2019-03-22T01:20:48.169Z,64.83
2019-03-22T01:23:17.836Z,60.77
2019-03-22T01:25:47.523Z,69.43
2019-03-22T01:28:17.182Z,61.83
2019-03-22T01:30:46.878Z,64.47
2019-03-22T01:33:16.912Z,69.70
2019-03-22T01:35:46.800Z,68.53
2019-03-22T01:38:16.467Z,73.87
2019-03-22T01:40:46.156Z,73.70
2019-03-22T01:43:15.816Z,68.13
2019-03-22T01:45:46.140Z,74.37
2019-03-22T01:48:15.803Z,76.67
2019-03-22T01:50:45.491Z,76.07
2019-03-22T01:53:15.151Z,71.80
2019-03-22T01:55:44.837Z,73.53
2019-03-22T01:58:14.612Z,75.00
2019-03-22T02:00:44.307Z,72.83
2019-03-22T02:03:13.963Z,76.77
2019-03-22T02:05:43.919Z,67.07
2019-03-22T02:08:13.586Z,81.03
2019-03-22T02:10:43.547Z,72.50
2019-03-22T02:13:13.207Z,73.77
2019-03-22T02:15:42.927Z,68.27
2019-03-22T02:18:12.587Z,71.03
2019-03-22T02:20:42.705Z,68.83
2019-03-22T02:23:12.368Z,74.23
2019-03-22T02:25:42.259Z,75.50
2019-03-22T02:28:12.335Z,79.07
2019-03-22T02:30:42.023Z,71.17
2019-03-22T02:33:11.695Z,71.57
2019-03-22T02:35:41.405Z,80.93
2019-03-22T02:38:11.240Z,82.73
2019-03-22T02:40:41.297Z,80.30
2019-03-22T02:43:11.132Z,93.97
2019-03-22T02:45:40.926Z,78.00
2019-03-22T02:48:10.855Z,76.37
2019-03-22T02:50:40.555Z,82.03
2019-03-22T02:53:10.216Z,77.53
2019-03-22T02:55:40.198Z,71.97
2019-03-22T02:58:20.462Z,72.73
2019-03-22T03:00:41.536Z,73.33
2019-03-22T03:03:11.291Z,84.10
2019-03-22T03:05:41.069Z,80.50
2019-03-22T03:08:10.748Z,81.60
2019-03-22T03:10:40.822Z,83.20
2019-03-22T03:13:10.468Z,85.93
2019-03-22T03:15:40.155Z,76.57
2019-03-22T03:18:09.811Z,86.10
2019-03-22T03:20:39.499Z,75.73
2019-03-22T03:23:09.226Z,94.33
2019-03-22T03:25:39.654Z,75.03
2019-03-22T03:28:09.403Z,77.63
2019-03-22T03:30:39.095Z,77.00
2019-03-22T03:33:09.097Z,77.30
2019-03-22T03:35:39.551Z,78.23
2019-03-22T03:38:09.208Z,78.27
2019-03-22T03:40:38.892Z,78.47
2019-03-22T03:43:08.550Z,85.33
2019-03-22T03:45:38.313Z,81.23
2019-03-22T03:48:09.819Z,84.20
2019-03-22T03:50:39.567Z,87.50
2019-03-22T03:53:09.408Z,81.40
2019-03-22T03:55:39.055Z,82.17
2019-03-22T03:58:08.744Z,82.80
2019-03-22T04:00:39.421Z,81.13
2019-03-22T04:03:09.187Z,75.70
2019-03-22T04:05:38.838Z,84.27
2019-03-22T04:08:08.542Z,82.17
2019-03-22T04:10:38.183Z,91.20
2019-03-22T04:13:07.871Z,92.90
2019-03-22T04:15:37.803Z,96.13
2019-03-22T04:18:07.509Z,82.80
2019-03-22T04:20:37.156Z,74.83
2019-03-22T04:23:06.844Z,83.27
2019-03-22T04:25:36.495Z,76.07
2019-03-22T04:28:06.491Z,81.50
2019-03-22T04:30:36.262Z,73.13
2019-03-22T04:33:06.905Z,82.07
2019-03-22T04:35:36.772Z,87.47
2019-03-22T04:38:06.771Z,75.43
2019-03-22T04:40:36.579Z,81.60
2019-03-22T04:43:06.381Z,86.13
2019-03-22T04:45:37.246Z,80.67
2019-03-22T04:48:18.811Z,77.13
2019-03-22T04:50:51.635Z,81.60
2019-03-22T04:53:24.425Z,82.57
2019-03-22T04:55:57.299Z,80.47
2019-03-22T04:58:29.838Z,87.70
2019-03-22T05:01:00.731Z,91.93
2019-03-22T05:03:31.455Z,87.80
2019-03-22T05:06:02.265Z,111.20
2019-03-22T05:08:34.550Z,84.60
2019-03-22T05:11:04.976Z,93.30
2019-03-22T05:13:37.798Z,102.57
2019-03-22T05:16:11.124Z,94.53
2019-03-22T05:18:44.091Z,104.00
2019-03-22T05:21:16.365Z,97.40
2019-03-22T05:23:48.868Z,84.97
2019-03-22T05:26:20.007Z,90.13
2019-03-22T05:28:50.510Z,91.97
2019-03-22T05:31:48.899Z,87.00
2019-03-22T05:34:18.694Z,89.10
2019-03-22T05:36:48.535Z,85.60
2019-03-22T05:39:18.317Z,87.33
2019-03-22T05:41:48.002Z,84.00
2019-03-22T05:44:17.968Z,80.03
2019-03-22T05:46:48.974Z,78.90
2019-03-22T05:49:18.930Z,73.47
2019-03-22T05:51:48.594Z,78.67
2019-03-22T05:54:18.275Z,77.90
2019-03-22T05:56:47.940Z,69.00
2019-03-22T05:59:17.629Z,75.03
2019-03-22T06:01:47.473Z,70.60
2019-03-22T06:04:17.433Z,73.40
2019-03-22T06:06:47.306Z,70.13
2019-03-22T06:09:17.071Z,72.23
2019-03-22T06:11:46.744Z,67.60
2019-03-22T06:14:16.403Z,63.63
2019-03-22T06:16:46.248Z,62.17
2019-03-22T06:19:18.955Z,60.63
2019-03-22T06:22:08.274Z,58.07
2019-03-22T06:24:38.082Z,58.60
2019-03-22T06:27:07.763Z,62.13
2019-03-22T06:29:37.609Z,65.47
2019-03-22T06:32:07.424Z,59.83
2019-03-22T06:34:37.331Z,63.20
2019-03-22T06:37:07.275Z,51.70
2019-03-22T06:39:36.855Z,55.17
2019-03-22T06:42:07.002Z,50.33
2019-03-22T06:44:49.325Z,47.87
2019-03-22T06:47:19.255Z,43.80
2019-03-22T06:49:49.111Z,46.93
2019-03-22T06:52:18.791Z,39.40
2019-03-22T06:54:48.634Z,39.97
2019-03-22T06:57:18.474Z,41.80
2019-03-22T06:59:48.371Z,41.00
2019-03-22T07:02:18.190Z,40.07
2019-03-22T07:04:47.851Z,43.00
2019-03-22T07:07:17.818Z,41.70
2019-03-22T07:09:47.973Z,40.33
2019-03-22T07:12:17.664Z,43.27
2019-03-22T07:14:47.358Z,38.23
2019-03-22T07:17:17.024Z,36.03
2019-03-22T07:19:46.719Z,36.37
2019-03-22T07:22:16.505Z,39.73
2019-03-22T07:24:46.194Z,39.20
2019-03-22T07:27:15.860Z,37.50
2019-03-22T07:29:45.557Z,36.93
2019-03-22T07:32:15.227Z,38.67
2019-03-22T07:34:44.918Z,38.03
2019-03-22T07:37:14.778Z,43.57
2019-03-22T07:39:44.758Z,44.93
2019-03-22T07:42:17.415Z,44.13
2019-03-22T07:44:46.100Z,42.57
2019-03-22T07:47:15.758Z,42.53
2019-03-22T07:49:45.451Z,48.03
2019-03-22T07:52:15.120Z,43.10
2019-03-22T07:54:44.813Z,48.27
2019-03-22T07:57:14.478Z,50.00
2019-03-22T07:59:44.177Z,45.57
2019-03-22T08:02:13.839Z,43.80
2019-03-22T08:04:44.112Z,52.27
2019-03-22T08:07:14.130Z,50.43
2019-03-22T08:09:44.177Z,42.27
2019-03-22T08:12:13.993Z,45.87
2019-03-22T08:14:43.624Z,44.63
2019-03-22T08:17:13.483Z,49.60
2019-03-22T08:19:43.279Z,45.73
2019-03-22T08:22:13.462Z,46.23
2019-03-22T08:24:43.315Z,49.03
2019-03-22T08:27:13.130Z,40.23
2019-03-22T08:29:42.804Z,48.73
2019-03-22T08:32:12.483Z,47.87
2019-03-22T08:34:42.366Z,47.93
2019-03-22T08:37:12.206Z,42.70
2019-03-22T08:39:41.868Z,48.20
2019-03-22T08:42:11.735Z,45.43
2019-03-22T08:44:41.499Z,44.63
2019-03-22T08:47:11.339Z,47.23
2019-03-22T08:49:41.233Z,48.50
2019-03-22T08:52:11.623Z,50.93
2019-03-22T08:54:41.358Z,48.03
2019-03-22T08:57:11.235Z,43.80
2019-03-22T08:59:40.868Z,46.70
2019-03-22T09:02:11.044Z,46.10
2019-03-22T09:04:41.172Z,45.00
2019-03-22T09:07:11.172Z,53.10
2019-03-22T09:09:41.985Z,54.97
2019-03-22T09:12:12.049Z,49.83
2019-03-22T09:14:42.070Z,52.80
2019-03-22T09:17:11.871Z,50.57
2019-03-22T09:19:41.644Z,50.77
2019-03-22T09:22:11.572Z,50.37
2019-03-22T09:24:41.514Z,53.70
2019-03-22T09:27:11.310Z,53.63
2019-03-22T09:29:41.091Z,49.50
2019-03-22T09:32:10.992Z,49.50
2019-03-22T09:34:40.882Z,53.63
2019-03-22T09:37:10.674Z,54.47
2019-03-22T09:39:40.604Z,52.90
2019-03-22T09:42:10.393Z,49.53
2019-03-22T09:44:44.659Z,57.13
2019-03-22T09:47:11.713Z,53.20
2019-03-22T09:49:42.011Z,55.47
2019-03-22T09:52:11.966Z,59.93
2019-03-22T09:54:41.791Z,55.70
2019-03-22T09:57:11.554Z,54.60
2019-03-22T09:59:41.410Z,52.00
2019-03-22T10:02:11.225Z,50.40
2019-03-22T10:04:40.946Z,57.83
2019-03-22T10:07:10.758Z,55.13
2019-03-22T10:09:40.586Z,52.93
2019-03-22T10:12:10.380Z,51.50
2019-03-22T10:14:40.432Z,52.77
2019-03-22T10:17:10.424Z,50.27
2019-03-22T10:19:42.184Z,53.03
2019-03-22T10:22:12.159Z,56.20
2019-03-22T10:24:41.835Z,57.17
2019-03-22T10:27:11.629Z,53.70
2019-03-22T10:29:41.512Z,55.70
2019-03-22T10:32:11.432Z,54.70
2019-03-22T10:34:41.414Z,54.47
2019-03-22T10:37:11.281Z,61.47
2019-03-22T10:39:40.956Z,54.30
2019-03-22T10:42:10.745Z,56.77
2019-03-22T10:44:41.011Z,52.63
2019-03-22T10:47:10.797Z,58.33
2019-03-22T10:49:41.860Z,63.00
2019-03-22T10:52:12.077Z,56.80
2019-03-22T10:54:41.830Z,49.60
2019-03-22T10:57:12.020Z,49.83
2019-03-22T10:59:41.932Z,54.27
2019-03-22T11:02:13.375Z,55.13
2019-03-22T11:04:43.224Z,52.97
2019-03-22T11:07:13.074Z,47.67
2019-03-22T11:09:42.762Z,53.07
2019-03-22T11:12:12.766Z,52.87
2019-03-22T11:14:42.543Z,53.67
2019-03-22T11:17:12.539Z,47.23
2019-03-22T11:19:42.574Z,50.37
2019-03-22T11:22:12.373Z,51.83
2019-03-22T11:24:42.178Z,50.07
2019-03-22T11:27:13.705Z,50.63
2019-03-22T11:29:43.363Z,46.50
2019-03-22T11:32:13.320Z,43.60
2019-03-22T11:34:43.186Z,48.73
2019-03-22T11:37:12.850Z,51.17
2019-03-22T11:39:42.775Z,43.60
2019-03-22T11:42:12.619Z,46.47
2019-03-22T11:44:42.746Z,44.93
2019-03-22T11:47:12.535Z,45.80
2019-03-22T11:49:42.366Z,39.10
2019-03-22T11:52:12.232Z,41.70
2019-03-22T11:54:41.919Z,40.33
2019-03-22T11:57:11.790Z,46.90
2019-03-22T11:59:41.614Z,49.43
2019-03-22T12:02:11.547Z,52.80
2019-03-22T12:04:41.446Z,46.87
2019-03-22T12:07:11.247Z,50.80
2019-03-22T12:09:41.074Z,48.57
2019-03-22T12:12:10.767Z,47.30
2019-03-22T12:14:40.897Z,46.17
2019-03-22T12:17:10.559Z,46.00
2019-03-22T12:19:40.427Z,45.47
2019-03-22T12:22:10.421Z,46.60
2019-03-22T12:24:40.255Z,47.90
2019-03-22T12:27:10.045Z,40.17
2019-03-22T12:29:39.727Z,46.03
2019-03-22T12:32:09.588Z,44.13
2019-03-22T12:34:39.399Z,40.23
2019-03-22T12:37:09.187Z,42.87
2019-03-22T12:39:38.883Z,40.87
2019-03-22T12:42:08.675Z,42.17
2019-03-22T12:44:38.650Z,39.27
2019-03-22T12:47:08.706Z,42.43
2019-03-22T12:49:38.577Z,41.70
2019-03-22T12:52:08.366Z,44.33
2019-03-22T12:54:38.202Z,48.80
2019-03-22T12:57:08.112Z,46.67
2019-03-22T12:59:38.050Z,46.97
2019-03-22T13:02:07.726Z,46.33
2019-03-22T13:04:37.659Z,41.03
2019-03-22T13:07:07.426Z,43.53
2019-03-22T13:09:37.295Z,48.43
2019-03-22T13:12:07.386Z,41.03
2019-03-22T13:14:37.621Z,40.90
2019-03-22T13:17:07.427Z,47.80
2019-03-22T13:19:37.394Z,46.60
2019-03-22T13:22:07.569Z,45.60
2019-03-22T13:24:37.516Z,42.07
2019-03-22T13:27:07.507Z,42.03
2019-03-22T13:29:37.643Z,47.07
2019-03-22T13:32:07.531Z,44.80
2019-03-22T13:34:37.329Z,44.23
2019-03-22T13:37:07.174Z,42.83
2019-03-22T13:39:36.841Z,40.60
2019-03-22T13:42:06.688Z,42.53
2019-03-22T13:44:36.458Z,36.70
2019-03-22T13:47:06.609Z,39.77
2019-03-22T13:49:36.409Z,36.80
2019-03-22T13:52:06.438Z,40.17
2019-03-22T13:54:36.237Z,39.43
2019-03-22T13:57:05.919Z,45.40
2019-03-22T13:59:35.719Z,44.43
2019-03-22T14:02:05.483Z,45.03
2019-03-22T14:04:35.285Z,44.57
2019-03-22T14:07:05.766Z,45.60
2019-03-22T14:09:35.531Z,43.50
2019-03-22T14:12:05.355Z,43.00
2019-03-22T14:14:35.029Z,46.30
2019-03-22T14:17:04.711Z,44.73
2019-03-22T14:19:34.615Z,46.97
2019-03-22T14:22:04.495Z,49.90
2019-03-22T14:24:34.339Z,47.10
2019-03-22T14:27:04.191Z,48.77
2019-03-22T14:29:34.557Z,51.30
2019-03-22T14:32:04.509Z,49.87
2019-03-22T14:34:34.360Z,45.60
2019-03-22T14:37:04.364Z,50.90
2019-03-22T14:39:34.130Z,49.77
2019-03-22T14:42:03.816Z,45.63
2019-03-22T14:44:34.479Z,47.13
2019-03-22T14:47:04.308Z,51.37
2019-03-22T14:49:34.134Z,59.67
2019-03-22T14:52:03.822Z,55.90
2019-03-22T14:54:33.483Z,55.37
2019-03-22T14:57:03.100Z,51.80
2019-03-22T14:59:32.767Z,53.73
2019-03-22T15:02:02.446Z,51.37
2019-03-22T15:04:32.307Z,51.90
2019-03-22T15:07:02.140Z,55.37
2019-03-22T15:09:31.780Z,51.10
2019-03-22T15:12:01.676Z,50.60
2019-03-22T15:14:32.983Z,50.40
2019-03-22T15:17:13.566Z,48.03
2019-03-22T15:20:00.381Z,49.40
2019-03-22T15:22:44.434Z,54.07
2019-03-22T15:25:18.790Z,48.73
2019-03-22T15:27:53.299Z,50.20
2019-03-22T15:30:41.855Z,50.43
2019-03-22T15:33:16.308Z,50.67
2019-03-22T15:35:57.266Z,50.80
2019-03-22T15:38:28.914Z,47.57
2019-03-22T15:40:58.999Z,43.97
2019-03-22T15:43:28.838Z,45.93
2019-03-22T15:45:58.753Z,49.47
2019-03-22T15:48:28.711Z,50.27
2019-03-22T15:50:58.525Z,51.80
2019-03-22T15:53:28.363Z,48.50
2019-03-22T15:55:58.156Z,54.73
2019-03-22T15:58:27.911Z,46.87
2019-03-22T16:00:58.152Z,47.53
2019-03-22T16:03:28.018Z,50.73
2019-03-22T16:05:57.758Z,47.30
2019-03-22T16:08:27.975Z,49.70
2019-03-22T16:10:57.738Z,47.27
2019-03-22T16:13:27.580Z,44.70
2019-03-22T16:15:57.366Z,43.80
2019-03-22T16:18:27.213Z,48.10
2019-03-22T16:21:00.053Z,42.03
2019-03-22T16:23:28.463Z,46.17
2019-03-22T16:25:58.662Z,47.13
2019-03-22T16:28:28.534Z,44.43
2019-03-22T16:30:58.802Z,48.13
2019-03-22T16:33:28.636Z,44.97
2019-03-22T16:35:58.752Z,51.90
2019-03-22T16:38:29.075Z,47.87
2019-03-22T16:40:59.275Z,49.67
2019-03-22T16:43:29.111Z,50.13
2019-03-22T16:45:58.778Z,54.33
2019-03-22T16:48:28.803Z,45.90
2019-03-22T16:50:58.637Z,45.23
2019-03-22T16:53:28.469Z,43.53
2019-03-22T16:55:58.815Z,49.30
2019-03-22T16:58:28.908Z,50.17
2019-03-22T17:00:58.780Z,44.53
2019-03-22T17:03:28.839Z,49.47
2019-03-22T17:05:58.991Z,49.20
2019-03-22T17:08:28.726Z,53.33
2019-03-22T17:10:58.818Z,51.00
2019-03-22T17:13:28.705Z,50.73
2019-03-22T17:15:59.331Z,49.00
2019-03-22T17:18:29.119Z,51.30
2019-03-22T17:20:59.091Z,49.33
2019-03-22T17:23:29.078Z,53.13
2019-03-22T17:25:59.195Z,52.90
2019-03-22T17:28:29.423Z,54.27
2019-03-22T17:30:59.426Z,48.13
2019-03-22T17:33:30.267Z,46.73
2019-03-22T17:36:00.476Z,49.57
2019-03-22T17:38:30.519Z,50.80
2019-03-22T17:41:00.830Z,48.70
2019-03-22T17:43:30.986Z,48.57
2019-03-22T17:46:01.259Z,47.40
2019-03-22T17:48:31.433Z,51.20
2019-03-22T17:51:01.624Z,55.63
2019-03-22T17:53:31.682Z,52.90
2019-03-22T17:56:01.489Z,51.10
2019-03-22T17:58:31.871Z,56.37
2019-03-22T18:01:01.672Z,52.60
2019-03-22T18:03:31.503Z,49.07
2019-03-22T18:06:01.291Z,47.80
2019-03-22T18:08:31.122Z,49.40
2019-03-22T18:11:00.787Z,49.97
2019-03-22T18:13:30.617Z,49.77
2019-03-22T18:16:01.071Z,53.00
2019-03-22T18:18:31.190Z,45.90
2019-03-22T18:21:00.982Z,56.53
2019-03-22T18:23:35.722Z,53.97
2019-03-22T18:26:02.784Z,52.47
2019-03-22T18:28:32.840Z,54.60
2019-03-22T18:31:02.807Z,56.87
2019-03-22T18:33:33.340Z,56.40
2019-03-22T18:36:03.019Z,52.73
2019-03-22T18:38:33.167Z,54.13
2019-03-22T18:41:03.223Z,52.80
2019-03-22T18:43:33.208Z,52.90
2019-03-22T18:46:02.999Z,55.70
2019-03-22T18:48:33.033Z,53.03
2019-03-22T18:51:02.699Z,53.47
2019-03-22T18:53:32.516Z,54.43
2019-03-22T18:56:02.677Z,52.80
2019-03-22T18:58:32.724Z,57.53
2019-03-22T19:01:02.486Z,49.53
2019-03-22T19:03:32.214Z,70.30
2019-03-22T19:06:02.178Z,49.63
2019-03-22T19:08:31.863Z,55.60
2019-03-22T19:11:02.060Z,53.87
2019-03-22T19:13:31.981Z,52.33
2019-03-22T19:16:01.871Z,54.53
2019-03-22T19:18:32.790Z,51.70
2019-03-22T19:21:02.726Z,56.93
2019-03-22T19:23:32.564Z,51.80
2019-03-22T19:26:02.555Z,47.00
2019-03-22T19:28:32.386Z,53.23
2019-03-22T19:31:02.711Z,53.77
2019-03-22T19:33:32.521Z,60.47
2019-03-22T19:36:03.032Z,52.47
2019-03-22T19:38:33.143Z,55.03
2019-03-22T19:41:02.911Z,55.63
2019-03-22T19:43:32.599Z,58.27
2019-03-22T19:46:02.383Z,63.83
2019-03-22T19:48:32.228Z,60.00
2019-03-22T19:51:02.231Z,54.53
2019-03-22T19:53:32.347Z,56.60
2019-03-22T19:56:02.761Z,58.53
2019-03-22T19:58:32.563Z,57.97
2019-03-22T20:01:02.385Z,56.27
2019-03-22T20:03:32.426Z,55.43
2019-03-22T20:06:02.382Z,56.50
2019-03-22T20:08:32.251Z,59.53
2019-03-22T20:11:02.143Z,55.27
2019-03-22T20:13:31.834Z,56.77
2019-03-22T20:16:02.195Z,55.10
2019-03-22T20:18:32.283Z,61.20
2019-03-22T20:21:02.116Z,54.63
2019-03-22T20:23:31.802Z,54.53
2019-03-22T20:26:02.060Z,51.97
2019-03-22T20:28:32.207Z,53.73
2019-03-22T20:31:02.521Z,54.17
2019-03-22T20:33:32.291Z,54.10
2019-03-22T20:36:02.155Z,55.53
2019-03-22T20:38:31.812Z,59.10
2019-03-22T20:41:01.815Z,56.90
2019-03-22T20:43:31.799Z,53.90
2019-03-22T20:46:02.015Z,56.23
2019-03-22T20:48:31.825Z,50.37
2019-03-22T20:51:01.673Z,54.17
2019-03-22T20:53:31.870Z,54.83
2019-03-22T20:56:01.815Z,63.73
2019-03-22T20:58:31.715Z,62.80
2019-03-22T21:01:01.599Z,55.37
2019-03-22T21:03:32.015Z,64.40
2019-03-22T21:06:04.434Z,62.23
2019-03-22T21:08:33.759Z,61.03
2019-03-22T21:11:03.572Z,65.87
2019-03-22T21:13:33.389Z,61.40
2019-03-22T21:16:03.284Z,59.43
2019-03-22T21:18:33.278Z,57.20
2019-03-22T21:21:03.261Z,63.40
2019-03-22T21:23:36.578Z,61.37
2019-03-22T21:26:05.294Z,60.10
2019-03-22T21:28:35.126Z,63.40
2019-03-22T21:31:04.821Z,55.83
2019-03-22T21:33:35.107Z,58.83
2019-03-22T21:36:04.942Z,58.33
2019-03-22T21:38:34.727Z,59.67
2019-03-22T21:41:04.933Z,63.60
2019-03-22T21:43:35.247Z,54.63
2019-03-22T21:46:05.255Z,54.33
2019-03-22T21:48:35.115Z,61.23
2019-03-22T21:51:05.094Z,53.93
2019-03-22T21:53:34.992Z,55.60
2019-03-22T21:56:04.698Z,55.00
2019-03-22T21:58:34.362Z,58.53
2019-03-22T22:01:04.059Z,53.50
2019-03-22T22:03:33.796Z,61.87
2019-03-22T22:06:03.685Z,63.90
2019-03-22T22:08:33.633Z,63.17
2019-03-22T22:11:05.946Z,62.03
2019-03-22T22:13:36.094Z,60.50
2019-03-22T22:16:06.286Z,59.13
2019-03-22T22:18:35.883Z,60.83
2019-03-22T22:21:05.783Z,58.90
2019-03-22T22:23:35.607Z,61.93
2019-03-22T22:26:05.746Z,52.80
2019-03-22T22:28:35.590Z,64.43
2019-03-22T22:31:05.764Z,60.23
2019-03-22T22:33:47.648Z,57.13
2019-03-22T22:36:17.459Z,64.33
2019-03-22T22:38:47.599Z,58.43
2019-03-22T22:41:17.423Z,60.40
2019-03-22T22:43:47.213Z,60.40
2019-03-22T22:46:17.105Z,57.80
2019-03-22T22:48:47.161Z,65.33
2019-03-22T22:51:17.127Z,55.73
2019-03-22T22:53:47.402Z,62.50
2019-03-22T22:56:17.187Z,57.07
2019-03-22T22:58:47.153Z,59.40
2019-03-22T23:01:17.313Z,64.70
2019-03-22T23:03:47.144Z,55.80
2019-03-22T23:06:16.835Z,56.37
2019-03-22T23:08:46.720Z,58.67
2019-03-22T23:11:16.594Z,61.30
2019-03-22T23:13:46.298Z,62.63
2019-03-22T23:16:16.082Z,57.67
2019-03-22T23:18:45.758Z,63.53
2019-03-22T23:21:15.644Z,60.17
2019-03-22T23:23:45.437Z,60.37
2019-03-22T23:26:15.270Z,61.33
2019-03-22T23:28:45.231Z,61.43
2019-03-22T23:31:14.927Z,64.90
2019-03-22T23:33:44.787Z,58.90
2019-03-22T23:36:20.156Z,63.53
2019-03-22T23:38:46.167Z,64.47
2019-03-22T23:41:16.191Z,66.77
2019-03-22T23:43:45.984Z,56.57
2019-03-22T23:46:16.016Z,65.50
2019-03-22T23:48:45.807Z,62.27
2019-03-22T23:51:15.639Z,66.17
2019-03-22T23:53:45.422Z,59.03
2019-03-22T23:56:15.475Z,65.60
2019-03-22T23:58:45.262Z,62.07
